• Join FlightAware (Why Join?)
  • Login
  • US Flag GB Flag 
03:22 EDT


 

Airport Tracker/Info


-or-


 

Live Flight TrackerFlight Track Log ✈ N560ML ✈ 26-Jan-2014 ✈ KSFB - KMAF

Flight Track Log - Related Links

Times and Time Zones

All times are in EST time to prevent confusion due to time zone crossing. See the N560ML flight status page for this flight to view local times or setup timezone preferences in your user account.

Time Position Orientation Groundspeed Altitude Reporting Facility
EST Latitude Longitude Course Direction KTS MPH feet Rate Location/Type
18:22 28.7833 -81.3500 274° West 240 276 4,800  Level Orlando TRACON
18:23 28.7833 -81.4167 270° West 244 281 5,000 60 Climbing Orlando TRACON
18:24 28.7500 -81.4667 233° Southwest 233 268 5,000  Level Orlando TRACON
18:25 28.7000 -81.5333 229° Southwest 232 267 5,000 1,200 Level Orlando TRACON
18:26 28.6667 -81.5833 233° Southwest 234 269 7,300 2,940 Climbing Orlando TRACON
18:27 28.6333 -81.6333 233° Southwest 237 273 10,600 2,940 Climbing Orlando TRACON
18:29 28.5769 -81.7578 243° Southwest 249 287 15,900 2,340 Climbing Jacksonville Center
18:30 28.5692 -81.8408 264° West 248 285 17,500 1,440 Climbing Jacksonville Center
18:31 28.5617 -81.9353 265° West 279 321 18,800 1,200 Climbing Jacksonville Center
18:32 28.5561 -82.0347 266° West 304 350 20,000 1,200 Climbing Jacksonville Center
18:33 28.5483 -82.1481 266° West 319 367 21,200 1,140 Climbing Jacksonville Center
18:34 28.5700 -82.2544 283° West 332 382 22,300 1,080 Climbing Jacksonville Center
18:35 28.5911 -82.3631 283° West 344 396 23,400 1,080 Climbing Jacksonville Center
18:36 28.6125 -82.4692 283° West 350 403 24,500 780 Climbing Jacksonville Center
18:37 28.6358 -82.5781 284° West 355 409 25,000 240 Climbing Jacksonville Center
18:38 28.6569 -82.6844 283° West 368 423 25,000 300 Level Jacksonville Center
18:39 28.6883 -82.7956 288° West 373 429 25,600 960 Climbing Jacksonville Center
18:40 28.7322 -82.8997 296° West 373 429 27,000 1,380 Climbing Jacksonville Center
18:41 28.7739 -83.0017 295° West 368 423 28,400 1,440 Climbing Jacksonville Center
18:42 28.8156 -83.0986 296° West 356 410 29,900 1,440 Climbing Jacksonville Center
18:43 28.8383 -83.2031 284° West 349 402 31,300 1,020 Climbing Jacksonville Center
18:44 28.8608 -83.3050 284° West 337 388 32,000 300 Climbing Jacksonville Center
18:45 28.8878 -83.4167 285° West 347 399 32,000  Level Jacksonville Center
18:46 28.9183 -83.5331 287° West 367 422 32,000  Level Jacksonville Center
18:47 28.9428 -83.6519 283° West 380 437 32,000  Level Jacksonville Center
18:48 28.9714 -83.7636 286° West 375 432 32,000  Level Jacksonville Center
18:49 28.9978 -83.8753 285° West 370 426 32,000  Level Jacksonville Center
18:50 29.0239 -83.9919 284° West 370 426 32,000  Level Jacksonville Center
18:51 29.0500 -84.1039 285° West 375 432 32,000 60 Level Jacksonville Center
18:52 29.0781 -84.2183 286° West 375 432 32,200 600 Climbing Jacksonville Center
18:53 29.1039 -84.3303 285° West 375 432 33,300 1,020 Climbing Jacksonville Center
18:54 29.1297 -84.4400 285° West 369 425 34,300 1,020 Climbing Jacksonville Center
18:55 29.1575 -84.5547 286° West 359 413 35,400 1,020 Climbing Jacksonville Center
18:56 29.1792 -84.6550 284° West 342 394 36,400 840 Climbing Jacksonville Center
18:57 29.2031 -84.7506 286° West 329 379 37,100 660 Climbing Jacksonville Center
18:58 29.2244 -84.8508 284° West 323 372 37,800 600 Climbing Jacksonville Center
18:59 29.2481 -84.9464 286° West 316 364 38,300 360 Climbing Jacksonville Center
19:00 29.2672 -85.0422 283° West 316 364 38,600 300 Climbing Jacksonville Center
19:01 29.2906 -85.1378 286° West 316 364 39,000 360 Climbing Jacksonville Center
19:02 29.3119 -85.2336 284° West 321 369 39,400 300 Climbing Jacksonville Center
19:03 29.3331 -85.3269 285° West 316 364 39,700 300 Climbing Jacksonville Center
19:04 29.3564 -85.4253 285° West 316 364 40,100 300 Climbing Jacksonville Center
19:05 29.3753 -85.5164 283° West 316 364 40,400 300 Climbing Jacksonville Center
19:06 29.3983 -85.6075 286° West 311 358 40,700 300 Climbing Jacksonville Center
19:07 29.4172 -85.7033 283° West 311 358 41,000 300 Climbing Jacksonville Center
19:08 29.4400 -85.8017 285° West 316 364 41,300 300 Climbing Jacksonville Center
19:09 29.4608 -85.8953 284° West 316 364 41,600 300 Climbing Jacksonville Center
19:10 29.4836 -85.9939 285° West 316 364 41,900 300 Climbing Jacksonville Center
19:11 29.5022 -86.0850 283° West 316 364 42,200 300 Climbing Jacksonville Center
19:12 29.5208 -86.1789 283° West 316 364 42,500 300 Climbing Jacksonville Center
19:13 29.5433 -86.2725 285° West 311 358 42,800 120 Climbing Jacksonville Center
19:15 29.5800 -86.4400 284° West 302 348 43,000 60 Climbing Houston Center
19:16 29.6003 -86.5344 284° West 302 348 43,000  Level Houston Center
19:17 29.6217 -86.6331 284° West 311 358 43,000  Level Houston Center
19:18 29.6467 -86.7517 284° West 311 358 43,000  Level Jacksonville Center
19:20 29.6847 -86.9297 284° West 320 368 43,000  Level Houston Center
19:21 29.7100 -87.0506 284° West 321 369 43,000  Level Houston Center
19:22 29.7308 -87.1503 284° West 321 369 43,000  Level Houston Center
19:23 29.7536 -87.2544 284° West 321 369 43,000  Level Houston Center
19:24 29.7728 -87.3494 283° West 321 369 43,000  Level Houston Center
19:25 29.7975 -87.4686 283° West 321 369 43,000  Level Houston Center
19:26 29.8169 -87.5672 283° West 320 368 43,000  Level Houston Center
19:27 29.8378 -87.6661 284° West 320 368 43,000  Level Houston Center
19:29 29.8583 -87.7706 283° West 320 368 43,000  Level Houston Center
19:30 29.8778 -87.8689 283° West 318 366 43,000  Level Houston Center
19:31 29.8989 -87.9667 284° West 314 361 43,000  Level Houston Center
19:32 29.9178 -88.0653 282° West 314 361 43,000  Level Houston Center
19:33 29.9375 -88.1642 283° West 315 362 43,000  Level Houston Center
19:34 29.9572 -88.2619 283° West 315 362 43,000  Level Houston Center
19:35 29.9803 -88.3792 283° West 314 361 43,000  Level Houston Center
19:36 30.0000 -88.4764 283° West 313 360 43,000  Level Houston Center
19:37 30.0183 -88.5733 282° West 313 360 43,000  Level Houston Center
19:38 30.0378 -88.6639 284° West 313 360 43,000  Level Houston Center
19:39 30.0592 -88.7806 282° West 312 359 43,000  Level Houston Center
19:40 30.0786 -88.8783 283° West 312 359 43,000  Level Houston Center
19:41 30.0986 -88.9758 283° West 312 359 43,000  Level Houston Center
19:42 30.1161 -89.0739 282° West 312 359 43,000  Level Houston Center
19:43 30.1353 -89.1708 283° West 312 359 43,000  Level Houston Center
19:44 30.1536 -89.2683 282° West 312 359 43,000  Level Houston Center
19:45 30.1742 -89.3775 282° West 316 364 43,000  Level Houston Center
19:46 30.1956 -89.4872 283° West 315 362 43,000  Level Houston Center
19:47 30.2142 -89.5867 282° West 315 362 43,000  Level Houston Center
19:48 30.2311 -89.6850 281° West 314 361 43,000  Level Houston Center
19:49 30.2508 -89.7911 282° West 327 376 43,000  Level Houston Center
19:50 30.2686 -89.8953 281° West 328 377 43,000  Level Houston Center
19:51 30.2897 -89.9958 284° West 324 373 43,000  Level Houston Center
19:52 30.3089 -90.0975 282° West 323 372 43,000  Level Houston Center
19:53 30.3278 -90.1983 282° West 323 372 43,000  Level Houston Center
19:54 30.3461 -90.2986 282° West 322 371 43,000  Level Houston Center
19:55 30.3686 -90.4192 282° West 322 371 43,000  Level Houston Center
19:56 30.3864 -90.5194 282° West 322 371 43,000  Level Houston Center
19:57 30.4050 -90.6206 282° West 322 371 43,000  Level Houston Center
19:58 30.4225 -90.7214 281° West 321 369 43,000  Level Houston Center
19:59 30.4414 -90.8228 282° West 322 371 43,000  Level Houston Center
20:00 30.4594 -90.9236 282° West 321 369 43,000  Level Houston Center
20:02 30.4769 -91.0250 281° West 321 369 43,000  Level Houston Center
20:03 30.4969 -91.1469 281° West 321 369 43,000  Level Houston Center
20:04 30.5150 -91.2472 282° West 320 368 43,000  Level Houston Center
20:05 30.5336 -91.3483 282° West 321 369 43,000  Level Houston Center
20:06 30.5497 -91.4433 281° West 321 369 43,000  Level Houston Center
20:07 30.5719 -91.5647 282° West 321 369 43,000  Level Houston Center
20:08 30.5886 -91.6669 281° West 322 371 43,000  Level Houston Center
20:09 30.6058 -91.7683 281° West 322 371 43,000  Level Houston Center
20:10 30.6236 -91.8703 281° West 322 371 43,000  Level Houston Center
20:11 30.6406 -91.9722 281° West 322 371 43,000  Level Houston Center
20:12 30.6569 -92.0736 281° West 321 369 43,000  Level Houston Center
20:13 30.6744 -92.1761 281° West 321 369 43,000  Level Houston Center
20:14 30.6942 -92.2975 281° West 321 369 43,000  Level Houston Center
20:15 30.7114 -92.3994 281° West 321 369 43,000  Level Houston Center
20:16 30.7292 -92.5017 281° West 321 369 43,000  Level Houston Center
20:17 30.7453 -92.6036 280° West 321 369 43,000  Level Houston Center
20:18 30.7614 -92.7047 281° West 320 368 43,000  Level Houston Center
20:19 30.7786 -92.8061 281° West 320 368 43,000  Level Houston Center
20:20 30.7947 -92.9092 280° West 320 368 43,000  Level Houston Center
20:21 30.8131 -93.0203 281° West 318 366 43,000  Level Houston Center
20:22 30.8297 -93.1228 281° West 319 367 43,000  Level Houston Center
20:23 30.8464 -93.2247 281° West 320 368 43,000  Level Houston Center
20:24 30.8619 -93.3278 280° West 323 372 43,000  Level Houston Center
20:25 30.8819 -93.4503 281° West 324 373 43,000  Level Houston Center
20:26 30.8981 -93.5544 280° West 325 374 43,000  Level Houston Center
20:27 30.9139 -93.6583 280° West 326 375 43,000  Level Houston Center
20:28 30.9303 -93.7617 281° West 327 376 43,000  Level Houston Center
20:29 30.9458 -93.8658 280° West 327 376 43,000  Level Houston Center
20:30 30.9617 -93.9700 280° West 327 376 43,000  Level Houston Center
20:31 30.9814 -94.0944 281° West 327 376 43,000  Level Houston Center
20:32 30.9969 -94.2006 280° West 327 376 43,000  Level Houston Center
20:33 31.0125 -94.3044 280° West 327 376 43,000  Level Houston Center
20:34 31.0283 -94.4083 280° West 326 375 43,000  Level Houston Center
20:35 31.0431 -94.5125 279° West 326 375 43,000  Level Houston Center
20:37 31.0581 -94.6172 280° West 326 375 43,000  Level Houston Center
20:38 31.0733 -94.7231 280° West 326 375 43,000  Level Houston Center
20:39 31.0881 -94.8294 279° West 326 375 43,000  Level Houston Center
20:40 31.1047 -94.9336 281° West 325 374 43,000  Level Houston Center
20:41 31.1200 -95.0369 280° West 323 372 43,000  Level Houston Center
20:42 31.1342 -95.1403 279° West 323 372 43,000  Level Houston Center
20:43 31.1528 -95.2636 280° West 323 372 43,000  Level Houston Center
20:44 31.1661 -95.3669 279° West 322 371 43,000  Level Houston Center
20:45 31.1814 -95.4703 280° West 322 371 43,000  Level Houston Center
20:46 31.1961 -95.5753 279° West 324 373 43,000  Level Houston Center
20:47 31.2089 -95.6786 278° West 323 372 43,000  Level Houston Center
20:48 31.2247 -95.7819 280° West 324 373 43,000  Level Houston Center
20:49 31.2397 -95.8869 280° West 324 373 43,000  Level Houston Center
20:50 31.2531 -95.9911 279° West 324 373 43,000  Level Houston Center
20:51 31.2689 -96.1089 279° West 325 374 43,000  Level Houston Center
20:52 31.2836 -96.2153 279° West 326 375 43,000  Level Houston Center
20:53 31.2978 -96.3197 279° West 326 375 43,000  Level Houston Center
20:54 31.3111 -96.4250 278° West 326 375 43,000  Level Houston Center
20:55 31.3247 -96.5300 279° West 325 374 43,000  Level Houston Center
20:56 31.3392 -96.6350 279° West 325 374 43,000  Level Houston Center
20:57 31.3533 -96.7406 279° West 325 374 43,000  Level Houston Center
20:58 31.3669 -96.8458 279° West 325 374 43,000  Level Houston Center
20:59 31.3831 -96.9692 279° West 326 375 43,000  Level Houston Center
21:00 31.3958 -97.0750 278° West 327 376 43,000  Level Houston Center
21:01 31.4097 -97.1800 279° West 327 376 43,000  Level Houston Center
21:02 31.4228 -97.2867 278° West 327 376 43,000  Level Houston Center
21:03 31.4364 -97.3936 279° West 328 377 43,000  Level Houston Center
21:04 31.4494 -97.5006 278° West 329 379 43,000  Level Houston Center
21:05 31.4622 -97.6078 278° West 330 380 43,000  Level Houston Center
21:06 31.4756 -97.7161 278° West 331 381 43,000  Level Houston Center
21:08 31.4942 -97.8611 279° West 335 386 43,000  Level Fort Worth Center
21:09 31.5061 -97.9686 277° West 332 382 43,000  Level Fort Worth Center
21:10 31.5194 -98.0781 278° West 336 387 43,000  Level Fort Worth Center
21:11 31.5325 -98.1869 278° West 336 387 43,000  Level Fort Worth Center
21:12 31.5478 -98.3144 278° West 338 389 43,000  Level Fort Worth Center
21:13 31.5600 -98.4247 277° West 339 390 43,000  Level Fort Worth Center
21:14 31.5728 -98.5344 278° West 338 389 43,000  Level Fort Worth Center
21:15 31.5856 -98.6447 278° West 339 390 43,000  Level Fort Worth Center
21:16 31.5989 -98.7544 278° West 339 390 43,000  Level Fort Worth Center
21:17 31.6108 -98.8647 277° West 338 389 43,000  Level Fort Worth Center
21:18 31.6231 -98.9756 277° West 339 390 43,000  Level Fort Worth Center
21:19 31.6358 -99.0936 277° West 338 389 43,000  Level Fort Worth Center
21:20 31.6492 -99.2025 278° West 337 388 43,000  Level Fort Worth Center
21:21 31.6608 -99.3139 277° West 340 391 43,000  Level Fort Worth Center
21:22 31.6728 -99.4247 277° West 342 394 43,000  Level Fort Worth Center
21:23 31.6811 -99.5358 275° West 342 394 43,000  Level Fort Worth Center
21:24 31.6900 -99.6467 275° West 341 392 43,000 -420 Level Fort Worth Center
21:25 31.6986 -99.7533 275° West 333 383 42,200 -840 Descending Fort Worth Center
21:26 31.7069 -99.8592 275° West 327 376 41,300 -1,080 Descending Fort Worth Center
21:27 31.7167 -99.9847 275° West 323 372 40,100 -1,320 Descending Fort Worth Center
21:28 31.7242 -100.0883 275° West 320 368 38,600 -1,620 Descending Fort Worth Center
21:29 31.7322 -100.1875 275° West 312 359 36,900 -1,620 Descending Fort Worth Center
21:30 31.7394 -100.2856 275° West 303 349 35,300 -1,680 Descending Fort Worth Center
21:31 31.7467 -100.3856 275° West 305 351 33,600 -1,680 Descending Fort Worth Center
21:32 31.7544 -100.4892 275° West 316 364 31,900 -1,740 Descending Fort Worth Center
21:33 31.7625 -100.5967 275° West 326 375 30,100 -1,800 Descending Fort Worth Center
21:34 31.7692 -100.7008 274° West 331 381 28,300 -2,040 Descending Fort Worth Center
21:35 31.7792 -100.8389 275° West 352 405 26,000 -2,160 Descending Fort Worth Center
21:36 31.7881 -100.9567 275° West 360 414 24,000 -1,980 Descending Fort Worth Center
21:37 31.7950 -101.0722 274° West 357 411 22,000 -1,920 Descending Fort Worth Center
21:38 31.8033 -101.1881 275° West 356 410 20,100 -1,920 Descending Fort Worth Center
21:39 31.8125 -101.3008 275° West 348 400 18,200 -1,920 Descending Fort Worth Center
21:40 31.8194 -101.4081 274° West 336 387 16,300 -1,860 Descending Fort Worth Center
21:41 31.8253 -101.5172 274° West 334 384 14,500 -1,800 Descending Fort Worth Center
21:42 31.8333 -101.6250 275° West 334 384 12,700 -1,860 Descending Fort Worth Center
21:43 31.8394 -101.7414 274° West 304 350 10,800 -1,740 Descending Fort Worth Center
21:44 31.8453 -101.8306 274° West 280 322 9,200 -1,380 Descending Fort Worth Center
21:45 31.8503 -101.9053 275° West 241 277 8,000 -1,080 Descending Fort Worth Center
21:46 31.8547 -101.9664 275° West 199 229 7,000 -960 Descending Fort Worth Center
21:47 31.8722 -102.0114 295° West 162 186 6,100 -840 Descending Fort Worth Center
21:48 31.8886 -102.0553 294° West 150 173 5,300 -780 Descending Fort Worth Center
21:49 31.9050 -102.1008 293° West 151 174 4,600 -720 Descending Fort Worth Center
21:50 31.9172 -102.1336 294° West 124 143 3,900 -660 Descending Fort Worth Center
21:52 31.9294 -102.1669 293° West 114 131 3,300 -600 Descending Fort Worth Center